createdAt,value
2023-05-04T00:00:34.870Z,100485.78
2023-05-04T00:03:23.022Z,100460.84
2023-05-04T00:06:10.928Z,100465.44
2023-05-04T00:08:58.793Z,100453.69
2023-05-04T00:11:46.499Z,100455.25
2023-05-04T00:14:34.207Z,100451.06
2023-05-04T00:17:22.325Z,100448.91
2023-05-04T00:20:10.510Z,100461.81
2023-05-04T00:22:58.181Z,100474.25
2023-05-04T00:25:45.815Z,100481.91
2023-05-04T00:28:33.566Z,100489.56
2023-05-04T00:31:21.262Z,100495.34
2023-05-04T00:34:09.069Z,100500.00
2023-05-04T00:36:56.840Z,100496.09
2023-05-04T00:39:44.668Z,100482.00
2023-05-04T00:42:32.304Z,100462.81
2023-05-04T00:45:20.463Z,100448.19
2023-05-04T00:48:08.422Z,100478.97
2023-05-04T00:50:56.803Z,100477.72
2023-05-04T00:53:45.666Z,100474.66
2023-05-04T00:56:34.228Z,100477.88
2023-05-04T00:59:21.932Z,100488.75
2023-05-04T01:02:09.571Z,100469.19
2023-05-04T01:04:57.221Z,100469.19
2023-05-04T01:08:03.570Z,100467.16
2023-05-04T01:11:04.464Z,100456.38
2023-05-04T01:13:52.191Z,100426.94
2023-05-04T01:16:39.894Z,100458.22
2023-05-04T01:19:30.383Z,100425.88
2023-05-04T01:22:17.978Z,100439.09
2023-05-04T01:25:06.982Z,100451.88
2023-05-04T01:28:05.413Z,100445.09
2023-05-04T01:30:57.944Z,100440.78
2023-05-04T01:33:46.105Z,100429.28
2023-05-04T01:36:34.129Z,100445.47
2023-05-04T01:39:22.499Z,100447.22
2023-05-04T01:42:10.234Z,100451.97
2023-05-04T01:44:57.970Z,100452.31
2023-05-04T01:47:46.387Z,100435.78
2023-05-04T01:50:34.051Z,100399.75
2023-05-04T01:53:23.055Z,100431.94
2023-05-04T01:56:10.811Z,100426.50
2023-05-04T01:58:58.558Z,100432.34
2023-05-04T02:01:46.219Z,100440.16
2023-05-04T02:04:34.332Z,100415.09
2023-05-04T02:07:21.942Z,100415.91
2023-05-04T02:10:10.064Z,100436.34
2023-05-04T02:12:58.018Z,100433.66
2023-05-04T02:15:45.850Z,100426.44
2023-05-04T02:18:33.515Z,100426.69
2023-05-04T02:21:21.440Z,100433.56
2023-05-04T02:24:09.254Z,100450.06
2023-05-04T02:26:57.075Z,100447.78
2023-05-04T02:29:47.362Z,100454.28
2023-05-04T02:32:37.796Z,100454.56
2023-05-04T02:35:35.833Z,100429.22
2023-05-04T02:38:24.389Z,100444.56
2023-05-04T02:41:12.152Z,100453.66
2023-05-04T02:43:59.945Z,100464.19
2023-05-04T02:46:47.703Z,100410.09
2023-05-04T02:49:35.849Z,100454.63
2023-05-04T02:52:23.582Z,100469.22
2023-05-04T02:55:11.430Z,100437.03
2023-05-04T02:57:59.105Z,100466.06
2023-05-04T03:00:53.597Z,100451.63
2023-05-04T03:03:41.314Z,100462.22
2023-05-04T03:06:29.067Z,100450.28
2023-05-04T03:09:17.076Z,100470.34
2023-05-04T03:12:05.096Z,100467.56
2023-05-04T03:14:53.237Z,100464.47
2023-05-04T03:17:41.373Z,100476.50
2023-05-04T03:20:29.389Z,100472.38
2023-05-04T03:23:18.471Z,100424.16
2023-05-04T03:26:06.158Z,100466.91
2023-05-04T03:28:56.244Z,100446.31
2023-05-04T03:31:44.116Z,100473.69
2023-05-04T03:34:37.040Z,100491.56
2023-05-04T03:37:26.505Z,100502.84
2023-05-04T03:40:14.752Z,100504.16
2023-05-04T03:43:02.496Z,100510.78
2023-05-04T03:45:50.231Z,100499.84
2023-05-04T03:48:38.214Z,100481.66
2023-05-04T03:51:29.167Z,100520.81
2023-05-04T03:54:16.841Z,100477.38
2023-05-04T03:57:04.877Z,100531.44
2023-05-04T03:59:56.281Z,100516.50
2023-05-04T04:02:45.660Z,100517.56
2023-05-04T04:05:38.972Z,100524.28
2023-05-04T04:08:27.020Z,100513.47
2023-05-04T04:11:15.145Z,100518.19
2023-05-04T04:14:02.992Z,100518.88
2023-05-04T04:16:50.812Z,100514.53
2023-05-04T04:19:38.554Z,100512.09
2023-05-04T04:22:26.569Z,100493.41
2023-05-04T04:25:14.420Z,100529.09
2023-05-04T04:28:02.006Z,100529.47
2023-05-04T04:30:49.671Z,100520.81
2023-05-04T04:33:37.221Z,100534.72
2023-05-04T04:36:25.093Z,100525.16
2023-05-04T04:39:12.758Z,100531.28
2023-05-04T04:42:00.696Z,100536.50
2023-05-04T04:44:50.915Z,100546.59
2023-05-04T04:47:40.414Z,100540.09
2023-05-04T04:50:29.342Z,100544.47
2023-05-04T04:53:17.166Z,100546.25
2023-05-04T04:56:06.047Z,100554.28
2023-05-04T04:58:53.834Z,100550.53
2023-05-04T05:01:43.997Z,100561.53
2023-05-04T05:04:31.870Z,100534.19
2023-05-04T05:07:19.473Z,100571.25
2023-05-04T05:10:08.776Z,100564.53
2023-05-04T05:12:56.571Z,100558.31
2023-05-04T05:15:44.313Z,100590.06
2023-05-04T05:18:32.368Z,100566.09
2023-05-04T05:21:20.187Z,100574.69
2023-05-04T05:24:07.841Z,100580.75
2023-05-04T05:26:55.570Z,100584.31
2023-05-04T05:29:31.204Z,100583.81
2023-05-04T05:32:21.702Z,100592.81
2023-05-04T05:35:09.950Z,100592.28
2023-05-04T05:37:59.098Z,100599.34
2023-05-04T05:40:46.770Z,100577.31
2023-05-04T05:43:34.537Z,100598.22
2023-05-04T05:46:23.229Z,100599.03
2023-05-04T05:49:11.741Z,100597.78
2023-05-04T05:51:59.560Z,100602.81
2023-05-04T05:54:47.382Z,100583.41
2023-05-04T05:57:34.994Z,100604.22
2023-05-04T06:00:25.261Z,100613.09
2023-05-04T06:03:13.012Z,100621.72
2023-05-04T06:06:01.013Z,100620.28
2023-05-04T06:08:51.827Z,100631.25
2023-05-04T06:11:39.626Z,100622.94
2023-05-04T06:14:27.324Z,100622.84
2023-05-04T06:17:15.295Z,100627.41
2023-05-04T06:20:02.939Z,100611.75
2023-05-04T06:22:50.949Z,100627.50
2023-05-04T06:25:38.499Z,100633.47
2023-05-04T06:28:26.332Z,100625.78
2023-05-04T06:31:15.772Z,100626.84
2023-05-04T06:34:03.531Z,100639.28
2023-05-04T06:36:51.161Z,100640.09
2023-05-04T06:39:38.833Z,100606.91
2023-05-04T06:42:31.199Z,100633.53
2023-05-04T06:45:21.165Z,100645.78
2023-05-04T06:48:09.146Z,100646.53
2023-05-04T06:50:57.454Z,100635.03
2023-05-04T06:53:45.170Z,100642.44
2023-05-04T06:56:33.178Z,100651.53
2023-05-04T06:59:20.946Z,100647.81
2023-05-04T07:02:08.780Z,100648.59
2023-05-04T07:04:57.826Z,100659.47
2023-05-04T07:07:45.543Z,100644.00
2023-05-04T07:10:33.775Z,100644.00
2023-05-04T07:13:21.609Z,100645.13
2023-05-04T07:16:09.554Z,100654.34
2023-05-04T07:18:57.766Z,100649.66
2023-05-04T07:21:45.362Z,100647.16
2023-05-04T07:24:35.434Z,100659.47
2023-05-04T07:27:23.200Z,100655.97
2023-05-04T07:30:11.566Z,100640.03
2023-05-04T07:32:59.197Z,100624.84
2023-05-04T07:35:47.032Z,100656.59
2023-05-04T07:38:37.498Z,100636.97
2023-05-04T07:41:25.306Z,100624.09
2023-05-04T07:44:13.014Z,100658.53
2023-05-04T07:47:01.916Z,100668.66
2023-05-04T07:49:49.946Z,100658.06
2023-05-04T07:52:37.728Z,100651.84
2023-05-04T07:55:26.361Z,100649.28
2023-05-04T07:58:16.853Z,100669.69
2023-05-04T08:01:04.749Z,100672.28
2023-05-04T08:03:52.931Z,100673.25
2023-05-04T08:06:41.900Z,100670.22
2023-05-04T08:09:29.694Z,100682.75
2023-05-04T08:12:17.393Z,100682.97
2023-05-04T08:15:06.148Z,100659.38
2023-05-04T08:17:56.299Z,100670.03
2023-05-04T08:20:44.011Z,100661.69
2023-05-04T08:23:34.435Z,100678.31
2023-05-04T08:26:22.079Z,100642.06
2023-05-04T08:29:10.982Z,100667.69
2023-05-04T08:31:59.669Z,100611.19
2023-05-04T08:34:47.466Z,100645.56
2023-05-04T08:37:35.487Z,100669.03
2023-05-04T08:40:24.397Z,100625.78
2023-05-04T08:43:12.238Z,100674.41
2023-05-04T08:45:59.939Z,100660.09
2023-05-04T08:48:47.844Z,100665.22
2023-05-04T08:51:36.614Z,100660.63
2023-05-04T08:54:26.623Z,100673.34
2023-05-04T08:57:16.703Z,100685.53
2023-05-04T09:00:05.809Z,100667.25
2023-05-04T09:02:55.002Z,100674.16
2023-05-04T09:05:42.936Z,100666.84
2023-05-04T09:08:30.714Z,100673.59
2023-05-04T09:11:18.523Z,100684.22
2023-05-04T09:14:06.624Z,100653.19
2023-05-04T09:16:54.424Z,100681.69
2023-05-04T09:19:44.383Z,100685.78
2023-05-04T09:22:32.215Z,100690.41
2023-05-04T09:25:20.037Z,100681.84
2023-05-04T09:28:07.701Z,100690.22
2023-05-04T09:31:00.790Z,100675.94
2023-05-04T09:33:48.543Z,100683.50
2023-05-04T09:36:36.603Z,100678.88
2023-05-04T09:39:24.332Z,100697.63
2023-05-04T09:42:19.028Z,100679.38
2023-05-04T09:45:12.626Z,100674.50
2023-05-04T09:48:00.951Z,100709.59
2023-05-04T09:50:53.890Z,100687.78
2023-05-04T09:53:43.452Z,100679.16
2023-05-04T09:56:31.176Z,100704.28
2023-05-04T09:59:21.073Z,100705.38
2023-05-04T10:02:21.656Z,100700.91
2023-05-04T10:05:16.194Z,100707.69
2023-05-04T10:08:05.600Z,100687.00
2023-05-04T10:10:53.771Z,100700.56
2023-05-04T10:13:41.574Z,100709.53
2023-05-04T10:16:43.534Z,100699.38
2023-05-04T10:20:11.102Z,100701.06
2023-05-04T10:23:16.951Z,100708.84
2023-05-04T10:26:24.351Z,100714.44
2023-05-04T10:29:16.216Z,100713.44
2023-05-04T10:32:17.013Z,100707.03
2023-05-04T10:35:09.541Z,100726.09
2023-05-04T10:37:59.778Z,100725.59
2023-05-04T10:40:53.777Z,100707.81
2023-05-04T10:43:42.741Z,100710.66
2023-05-04T10:46:30.336Z,100690.38
2023-05-04T10:49:18.171Z,100709.06
2023-05-04T10:52:10.037Z,100701.91
2023-05-04T10:55:02.516Z,100701.59
2023-05-04T10:57:55.989Z,100709.84
2023-05-04T11:00:47.754Z,100705.25
2023-05-04T11:03:41.308Z,100707.06
2023-05-04T11:06:29.205Z,100699.41
2023-05-04T11:09:16.888Z,100715.13
2023-05-04T11:12:05.108Z,100703.69
2023-05-04T11:15:03.378Z,100701.88
2023-05-04T11:17:53.201Z,100694.63
2023-05-04T11:20:41.617Z,100681.94
2023-05-04T11:23:30.188Z,100696.19
2023-05-04T11:26:18.023Z,100710.72
2023-05-04T11:29:13.882Z,100714.94
2023-05-04T11:32:01.806Z,100685.56
2023-05-04T11:34:49.931Z,100703.44
2023-05-04T11:37:44.301Z,100711.66
2023-05-04T11:40:41.449Z,100697.88
2023-05-04T11:43:29.411Z,100690.34
2023-05-04T11:46:20.076Z,100691.81
2023-05-04T11:49:07.909Z,100687.81
2023-05-04T11:52:08.616Z,100685.06
2023-05-04T11:54:57.547Z,100676.88
2023-05-04T11:57:45.676Z,100671.38
2023-05-04T12:00:40.513Z,100692.84
2023-05-04T12:03:44.029Z,100664.34
2023-05-04T12:06:39.764Z,100665.81
2023-05-04T12:09:27.525Z,100675.94
2023-05-04T12:12:16.664Z,100688.59
2023-05-04T12:15:05.006Z,100688.69
2023-05-04T12:17:52.733Z,100678.47
2023-05-04T12:20:40.677Z,100670.28
2023-05-04T12:23:28.310Z,100679.88
2023-05-04T12:26:19.393Z,100678.81
2023-05-04T12:29:07.713Z,100679.44
2023-05-04T12:31:55.612Z,100681.25
2023-05-04T12:34:43.327Z,100683.13
2023-05-04T12:37:31.617Z,100646.81
2023-05-04T12:40:28.359Z,100671.56
2023-05-04T12:43:20.716Z,100680.22
2023-05-04T12:46:09.025Z,100683.81
2023-05-04T12:48:57.445Z,100693.69
2023-05-04T12:51:45.229Z,100685.38
2023-05-04T12:54:33.331Z,100689.38
2023-05-04T12:57:21.001Z,100687.41
2023-05-04T13:00:10.472Z,100695.78
2023-05-04T13:03:01.243Z,100697.88
2023-05-04T13:05:50.000Z,100668.81
2023-05-04T13:08:37.834Z,100691.63
2023-05-04T13:11:25.896Z,100689.38
2023-05-04T13:14:14.686Z,100685.22
2023-05-04T13:17:02.973Z,100680.16
2023-05-04T13:19:51.027Z,100672.91
2023-05-04T13:22:39.160Z,100661.00
2023-05-04T13:25:27.262Z,100666.13
2023-05-04T13:28:17.650Z,100672.44
2023-05-04T13:31:05.999Z,100653.03
2023-05-04T13:33:53.695Z,100666.19
2023-05-04T13:36:41.474Z,100657.53
2023-05-04T13:39:29.490Z,100670.38
2023-05-04T13:42:17.412Z,100653.66
2023-05-04T13:45:06.823Z,100642.88
2023-05-04T13:47:54.928Z,100622.41
2023-05-04T13:50:44.834Z,100649.38
2023-05-04T13:53:32.510Z,100644.25
2023-05-04T13:56:20.692Z,100632.69
2023-05-04T13:59:08.381Z,100629.94
2023-05-04T14:01:56.726Z,100657.09
2023-05-04T14:04:44.474Z,100648.19
2023-05-04T14:07:32.871Z,100662.53
2023-05-04T14:10:20.455Z,100650.19
2023-05-04T14:13:08.611Z,100647.63
2023-05-04T14:15:56.227Z,100649.22
2023-05-04T14:18:46.239Z,100654.22
2023-05-04T14:21:36.150Z,100659.50
2023-05-04T14:24:25.199Z,100653.72
2023-05-04T14:27:12.775Z,100661.19
2023-05-04T14:30:00.468Z,100653.72
2023-05-04T14:32:48.315Z,100656.53
2023-05-04T14:35:37.752Z,100645.34
2023-05-04T14:38:25.368Z,100650.06
2023-05-04T14:41:14.530Z,100651.47
2023-05-04T14:44:02.307Z,100632.28
2023-05-04T14:46:50.098Z,100654.97
2023-05-04T14:49:42.783Z,100672.97
2023-05-04T14:52:31.445Z,100670.03
2023-05-04T14:55:19.028Z,100671.78
2023-05-04T14:58:07.032Z,100676.88
2023-05-04T15:00:54.827Z,100678.53
2023-05-04T15:03:42.833Z,100682.25
2023-05-04T15:06:32.897Z,100655.34
2023-05-04T15:09:20.825Z,100677.72
2023-05-04T15:12:09.181Z,100648.69
2023-05-04T15:14:57.014Z,100681.22
2023-05-04T15:17:44.764Z,100668.06
2023-05-04T15:20:39.085Z,100662.38
2023-05-04T15:23:26.804Z,100668.00
2023-05-04T15:26:14.568Z,100661.19
2023-05-04T15:29:02.227Z,100658.69
2023-05-04T15:31:50.185Z,100666.25
2023-05-04T15:34:37.842Z,100660.34
2023-05-04T15:37:27.998Z,100675.97
2023-05-04T15:40:16.034Z,100657.63
2023-05-04T15:43:04.095Z,100670.47
2023-05-04T15:45:54.480Z,100679.69
2023-05-04T15:48:42.641Z,100649.38
2023-05-04T15:51:32.265Z,100638.91
2023-05-04T15:54:19.975Z,100671.06
2023-05-04T15:57:07.982Z,100673.34
2023-05-04T16:00:04.614Z,100659.50
2023-05-04T16:02:52.545Z,100651.25
2023-05-04T16:05:40.477Z,100651.59
2023-05-04T16:08:28.241Z,100648.97
2023-05-04T16:11:16.004Z,100655.47
2023-05-04T16:14:03.568Z,100653.44
2023-05-04T16:16:54.129Z,100654.56
2023-05-04T16:19:43.828Z,100663.31
2023-05-04T16:22:32.961Z,100659.53
2023-05-04T16:25:20.737Z,100673.03
2023-05-04T16:28:14.559Z,100667.78
2023-05-04T16:31:06.241Z,100675.97
2023-05-04T16:33:54.045Z,100657.75
2023-05-04T16:36:47.989Z,100665.66
2023-05-04T16:39:37.986Z,100684.34
2023-05-04T16:42:25.584Z,100685.09
2023-05-04T16:45:14.567Z,100684.94
2023-05-04T16:48:02.931Z,100679.81
2023-05-04T16:50:51.438Z,100650.34
2023-05-04T16:53:42.468Z,100664.13
2023-05-04T16:56:30.175Z,100673.56
2023-05-04T16:59:17.871Z,100655.16
2023-05-04T17:02:37.136Z,100676.41
2023-05-04T17:05:30.683Z,100670.78
2023-05-04T17:08:19.615Z,100697.44
2023-05-04T17:11:09.827Z,100674.50
2023-05-04T17:13:57.639Z,100692.63
2023-05-04T17:16:48.797Z,100692.25
2023-05-04T17:19:37.252Z,100701.84
2023-05-04T17:22:26.326Z,100707.41
2023-05-04T17:25:16.258Z,100689.06
2023-05-04T17:28:07.121Z,100702.06
2023-05-04T17:31:03.965Z,100696.91
2023-05-04T17:33:52.281Z,100714.50
2023-05-04T17:36:40.005Z,100694.50
2023-05-04T17:39:27.912Z,100717.72
2023-05-04T17:42:21.575Z,100711.56
2023-05-04T17:45:09.562Z,100727.91
2023-05-04T17:47:57.609Z,100732.31
2023-05-04T17:50:45.851Z,100733.47
2023-05-04T17:53:33.603Z,100724.69
2023-05-04T17:56:22.155Z,100732.16
2023-05-04T17:59:09.941Z,100732.22
2023-05-04T18:01:57.702Z,100740.59
2023-05-04T18:04:45.632Z,100728.50
2023-05-04T18:07:33.355Z,100762.31
2023-05-04T18:10:21.834Z,100731.63
2023-05-04T18:13:09.607Z,100749.88
2023-05-04T18:15:58.689Z,100750.31
2023-05-04T18:18:46.446Z,100728.94
2023-05-04T18:21:37.727Z,100766.06
2023-05-04T18:24:28.156Z,100766.84
2023-05-04T18:27:16.482Z,100737.88
2023-05-04T18:30:06.125Z,100759.06
2023-05-04T18:32:54.116Z,100773.41
2023-05-04T18:35:42.057Z,100771.88
2023-05-04T18:38:29.786Z,100779.59
2023-05-04T18:41:17.447Z,100783.06
2023-05-04T18:44:06.023Z,100782.06
2023-05-04T18:46:53.725Z,100779.56
2023-05-04T18:49:41.562Z,100799.16
2023-05-04T18:52:29.249Z,100797.72
2023-05-04T18:55:17.091Z,100787.78
2023-05-04T18:58:04.698Z,100797.09
2023-05-04T19:00:52.486Z,100799.88
2023-05-04T19:03:47.254Z,100806.47
2023-05-04T19:06:37.153Z,100808.13
2023-05-04T19:09:24.885Z,100805.03
2023-05-04T19:12:12.783Z,100805.50
2023-05-04T19:15:00.511Z,100797.28
2023-05-04T19:17:48.238Z,100792.81
2023-05-04T19:20:40.039Z,100807.63
2023-05-04T19:23:27.947Z,100778.41
2023-05-04T19:26:16.434Z,100782.41
2023-05-04T19:29:04.363Z,100792.91
2023-05-04T19:31:51.933Z,100805.16
2023-05-04T19:34:43.230Z,100806.03
2023-05-04T19:37:31.049Z,100814.34
2023-05-04T19:40:18.976Z,100793.88
2023-05-04T19:43:06.663Z,100795.91
2023-05-04T19:45:57.479Z,100799.66
2023-05-04T19:48:45.234Z,100806.16
2023-05-04T19:51:33.098Z,100804.44
2023-05-04T19:54:20.839Z,100804.25
2023-05-04T19:57:08.579Z,100808.44
2023-05-04T19:59:57.035Z,100787.69
2023-05-04T20:02:44.999Z,100811.06
2023-05-04T20:05:33.412Z,100809.91
2023-05-04T20:08:21.159Z,100809.25
2023-05-04T20:11:08.870Z,100818.66
2023-05-04T20:13:56.815Z,100817.84
2023-05-04T20:16:44.518Z,100814.81
2023-05-04T20:19:32.293Z,100813.28
2023-05-04T20:22:19.982Z,100812.38
2023-05-04T20:25:07.989Z,100824.44
2023-05-04T20:27:55.754Z,100815.69
2023-05-04T20:30:43.598Z,100824.56
2023-05-04T20:33:31.223Z,100816.50
2023-05-04T20:36:18.858Z,100818.91
2023-05-04T20:39:07.266Z,100825.72
2023-05-04T20:41:55.250Z,100788.22
2023-05-04T20:44:42.875Z,100806.94
2023-05-04T20:47:30.610Z,100821.69
2023-05-04T20:50:19.020Z,100812.72
2023-05-04T20:53:06.791Z,100816.41
2023-05-04T20:55:54.466Z,100814.16
2023-05-04T20:58:44.833Z,100822.56
2023-05-04T21:01:34.977Z,100808.19
2023-05-04T21:04:23.572Z,100806.44
2023-05-04T21:07:11.430Z,100813.44
2023-05-04T21:09:59.274Z,100802.78
2023-05-04T21:12:48.131Z,100808.44
2023-05-04T21:15:48.080Z,100815.03
2023-05-04T21:18:36.121Z,100821.16
2023-05-04T21:21:23.921Z,100809.50
2023-05-04T21:24:13.377Z,100825.88
2023-05-04T21:27:01.279Z,100831.78
2023-05-04T21:29:48.927Z,100830.88
2023-05-04T21:32:36.613Z,100831.78
2023-05-04T21:35:24.819Z,100836.91
2023-05-04T21:38:13.149Z,100815.97
2023-05-04T21:41:13.256Z,100825.59
2023-05-04T21:44:01.029Z,100823.38
2023-05-04T21:46:48.893Z,100828.22
2023-05-04T21:49:36.939Z,100824.72
2023-05-04T21:52:24.635Z,100811.38
2023-05-04T21:55:12.439Z,100822.56
2023-05-04T21:58:00.066Z,100821.31
2023-05-04T22:00:47.941Z,100838.53
2023-05-04T22:03:36.209Z,100840.16
2023-05-04T22:06:24.748Z,100831.47
2023-05-04T22:09:13.565Z,100824.75
2023-05-04T22:12:02.501Z,100834.44
2023-05-04T22:14:50.574Z,100805.16
2023-05-04T22:17:38.302Z,100823.03
2023-05-04T22:20:26.981Z,100822.00
2023-05-04T22:23:14.861Z,100831.69
2023-05-04T22:26:02.445Z,100798.53
2023-05-04T22:28:50.538Z,100823.59
2023-05-04T22:31:38.152Z,100812.22
2023-05-04T22:34:25.992Z,100827.69
2023-05-04T22:37:13.620Z,100805.22
2023-05-04T22:40:05.366Z,100786.53
2023-05-04T22:42:53.207Z,100810.69
2023-05-04T22:45:41.382Z,100816.59
2023-05-04T22:48:31.886Z,100811.88
2023-05-04T22:51:19.540Z,100810.97
2023-05-04T22:54:07.149Z,100800.69
2023-05-04T22:56:54.918Z,100790.22
2023-05-04T22:59:42.660Z,100813.41
2023-05-04T23:02:30.657Z,100807.16
2023-05-04T23:05:18.409Z,100794.28
2023-05-04T23:08:06.296Z,100789.63
2023-05-04T23:10:53.875Z,100790.09
2023-05-04T23:13:42.016Z,100764.22
2023-05-04T23:16:32.180Z,100792.16
2023-05-04T23:19:20.456Z,100782.47
2023-05-04T23:22:10.638Z,100780.25
2023-05-04T23:24:58.537Z,100780.94
2023-05-04T23:27:46.082Z,100775.78
2023-05-04T23:30:33.820Z,100751.16
2023-05-04T23:33:21.722Z,100786.78
2023-05-04T23:36:09.676Z,100780.19
2023-05-04T23:38:57.364Z,100784.59
2023-05-04T23:41:45.217Z,100773.31
2023-05-04T23:44:33.213Z,100785.91
2023-05-04T23:47:21.387Z,100782.13
2023-05-04T23:50:12.644Z,100785.91
2023-05-04T23:53:00.576Z,100781.09
2023-05-04T23:55:56.268Z,100776.66
2023-05-04T23:58:47.158Z,100780.59
